Hg 306 Tobis — OUPS — position and weather

sailwx.info

Track history (hours):
 
Tides and Currents Weather Stations Pressure Air Temp Water Temp Dewpoint Dewpoint Depression Visibility Wind Speed Wind Dir Waves Ship Positions

Hg 306 Tobis

Last reported at 2016-May-03 12:14 UTC. Time now 2016-May-06 16:48 UTC.
Position N 59°11' E 004°42'.

Length 40 m; draft 6.4 m.

Type: Fishing. MMSI: 219013001.

Date/timePositionNaut miles runAvg speedWind from/ knotsBaromVisibWave heightAir tempDewpointWater temp
2016-May-03 12:14N 59°11' E 004°42'710.2
2016-May-03 11:33N 59°05' E 004°50'1010.0
2016-May-03 10:33N 58°57' E 005°01'1110.6
2016-May-03 09:33N 58°49' E 005°14'1211.6
2016-May-03 08:34N 58°39' E 005°27'1110.8
2016-May-03 07:33N 58°31' E 005°39'1111.1
2016-May-03 06:33N 58°22' E 005°53'1110.8
2016-May-03 05:33N 58°13' E 006°05'1110.8
2016-May-03 04:33N 58°06' E 006°19'1110.7
2016-May-03 03:33N 57°59' E 006°35'1110.9
2016-May-03 02:33N 57°52' E 006°51'14 0.8
2016-May-02 08:14N 57°39' E 006°41'6 9.3
2016-May-02 07:33N 57°42' E 006°30'10 9.7
2016-May-02 06:33N 57°47' E 006°14'  
2016-Apr-27 09:11N 57°51' E 005°54'711.0
2016-Apr-27 08:33N 57°48' E 006°06'1111.2
2016-Apr-27 07:32N 57°43' E 006°25'  
Track history (hours):
 
Tides and Currents Weather Stations Pressure Air Temp Water Temp Dewpoint Dewpoint Depression Visibility Wind Speed Wind Dir Waves Ship Positions

Hg 306 Tobis

Last reported at 2016-May-03 12:14 UTC. Time now 2016-May-06 16:48 UTC.
Position N 59°11' E 004°42'.

Length 40 m; draft 6.4 m.

Type: Fishing. MMSI: 219013001.

Date/timePositionNaut miles runAvg speedWind from/ knotsBaromVisibWave heightAir tempDewpointWater temp
2016-May-03 12:14N 59°11' E 004°42'710.2
2016-May-03 11:33N 59°05' E 004°50'1010.0
2016-May-03 10:33N 58°57' E 005°01'1110.6
2016-May-03 09:33N 58°49' E 005°14'1211.6
2016-May-03 08:34N 58°39' E 005°27'1110.8
2016-May-03 07:33N 58°31' E 005°39'1111.1
2016-May-03 06:33N 58°22' E 005°53'1110.8
2016-May-03 05:33N 58°13' E 006°05'1110.8
2016-May-03 04:33N 58°06' E 006°19'1110.7
2016-May-03 03:33N 57°59' E 006°35'1110.9
2016-May-03 02:33N 57°52' E 006°51'14 0.8
2016-May-02 08:14N 57°39' E 006°41'6 9.3
2016-May-02 07:33N 57°42' E 006°30'10 9.7
2016-May-02 06:33N 57°47' E 006°14'  
2016-Apr-27 09:11N 57°51' E 005°54'711.0
2016-Apr-27 08:33N 57°48' E 006°06'1111.2
2016-Apr-27 07:32N 57°43' E 006°25'  

Dump ship's entire track history